Rochester, Minnesota
Current Conditions -  °F | °C
As of 12:30 PM on Wednesday 26 Nov 2014 (Local Time) from KRST Reporting Station
Light Snow Light Snow  
Wind Chill: 14°   Ceiling: 1500
Heat Index: 24°   Visibility: 0.5mi
Dew Point: 20°   Wind: 10mph
Humidity: 84%   Direction: 20°NNE
Pressure: 30.12"   Gusts: NA
Location:  44.02°N, 92.46°W
Report Text: KRST 261830Z 02009KT 1/2SM R31/4000VP6000FT -SN BR SCT007 OVC015 M04/M07 A3012 RMK AO2 SFC VIS 3/4 P0002 T10441067
Loading
Personal Weather Stations






























Interactive Weather Map New forecast layout! Learn more

10-Day Weather Forecast

Advertisements
Track Severe Weather on mobile